Arrow — CRXN — position and weather

sailwx.info

Track history (hours):
 
Tides and Currents Weather Stations Pressure Air Temp Water Temp Dewpoint Dewpoint Depression Visibility Wind Speed Wind Dir Waves Ship Positions

Arrow

Last reported at 2014-Dec-20 06:33 UTC. Time now 2014-Dec-22 09:58 UTC.
Position N 36°50' E 023°33'.

Length 126 m; draft 7.4 m.

Type: Cargo ship. MMSI: 255797000.

Date/timePositionNaut miles runAvg speedWind from/ knotsBaromVisibWave heightAir tempDewpointWater temp
2014-Dec-20 06:33N 36°50' E 023°33'3213.5
2014-Dec-20 04:11N 37°17' E 023°54'913.9
2014-Dec-20 03:33N 37°25' E 023°59'1414.3
2014-Dec-20 02:33N 37°37' E 024°09'4213.4
2014-Dec-19 23:27N 38°08' E 024°43'11413.7
2014-Dec-19 15:08N 39°51' E 025°46'14313.1
2014-Dec-19 04:13N 40°53' E 028°36'913.8
2014-Dec-19 03:32N 40°55' E 028°48'7 6.9
2014-Dec-19 02:32N 40°59' E 028°55'0 0.1
2014-Dec-19 01:30N 40°59' E 028°55'0 0.0
2014-Dec-19 00:30N 40°59' E 028°55'0 0.0
2014-Dec-18 23:18N 40°59' E 028°55'0 0.0
2014-Dec-18 22:30N 40°59' E 028°55'0 0.1
2014-Dec-18 21:18N 40°59' E 028°55'0 0.0
2014-Dec-18 20:30N 40°59' E 028°55'0 0.0
2014-Dec-18 19:33N 40°59' E 028°55'4 4.3
2014-Dec-18 18:31N 41°02' E 028°60'21 1.0
2014-Dec-17 21:23N 41°21' E 029°10'1011.8
2014-Dec-17 20:32N 41°26' E 029°22'36512.5
2014-Dec-16 15:17N 44°44' E 036°22'  
Track history (hours):
 
Tides and Currents Weather Stations Pressure Air Temp Water Temp Dewpoint Dewpoint Depression Visibility Wind Speed Wind Dir Waves Ship Positions

Arrow

Last reported at 2014-Dec-20 06:33 UTC. Time now 2014-Dec-22 09:58 UTC.
Position N 36°50' E 023°33'.

Length 126 m; draft 7.4 m.

Type: Cargo ship. MMSI: 255797000.

Date/timePositionNaut miles runAvg speedWind from/ knotsBaromVisibWave heightAir tempDewpointWater temp
2014-Dec-20 06:33N 36°50' E 023°33'3213.5
2014-Dec-20 04:11N 37°17' E 023°54'913.9
2014-Dec-20 03:33N 37°25' E 023°59'1414.3
2014-Dec-20 02:33N 37°37' E 024°09'4213.4
2014-Dec-19 23:27N 38°08' E 024°43'11413.7
2014-Dec-19 15:08N 39°51' E 025°46'14313.1
2014-Dec-19 04:13N 40°53' E 028°36'913.8
2014-Dec-19 03:32N 40°55' E 028°48'7 6.9
2014-Dec-19 02:32N 40°59' E 028°55'0 0.1
2014-Dec-19 01:30N 40°59' E 028°55'0 0.0
2014-Dec-19 00:30N 40°59' E 028°55'0 0.0
2014-Dec-18 23:18N 40°59' E 028°55'0 0.0
2014-Dec-18 22:30N 40°59' E 028°55'0 0.1
2014-Dec-18 21:18N 40°59' E 028°55'0 0.0
2014-Dec-18 20:30N 40°59' E 028°55'0 0.0
2014-Dec-18 19:33N 40°59' E 028°55'4 4.3
2014-Dec-18 18:31N 41°02' E 028°60'21 1.0
2014-Dec-17 21:23N 41°21' E 029°10'1011.8
2014-Dec-17 20:32N 41°26' E 029°22'36512.5
2014-Dec-16 15:17N 44°44' E 036°22'  

Dump ship's entire track history